Airfield :
LOGIN :

Register | Disclaimer

   EN    FR    IT 

 










Legend :    VFR   Marginal VFR   IFR   Intensive IFR   Very Intensive IFR
Visi :
Ceiling :
>= 8 km
>= 3000ft
5 to 8 km
1000 to 3000 ft
1500m to 5 km
500 to 1000 ft
800 to 1500m
200 to 500 ft
< 800m
< 200 ft
Symbols :   Thunderstorms  Fog  Heavy snow  Heavy precipitations  Wind > 20 kt
SIGMETs :     Misc.  Thunderstorms  Icing  Turbulence  Mountain Waves  Volcanic Ashes






- Airport Elevation : 1058 ft
- IATA code : SCN


EDDR - Saarbrücken

CURRENT METAR :
  • 201950Z 08010KT 9999 BKN006 01/01 Q1012 NOSIG

EXPIRED METARs :
  • 201920Z 09010KT 9999 BKN008 01/01 Q1012 NOSIG
  • 201850Z 07005KT 9999 BKN009 01/00 Q1012 NOSIG
  • 201820Z 08006KT 9999 BKN010 BKN034 01/M00 Q1012 TEMPO BKN009
  • 201750Z 08005KT 9999 FEW015 BKN037 01/M00 Q1013 NOSIG
  • 201720Z 07006KT 9999 FEW016 BKN038 01/00 Q1012 NOSIG

TAF AMD TAF EDDR
Valid from the 20 at 18:00 until the 21 at 18:00 UTC


201840Z 2018/2118 06007KT 9999 SCT009 BKN035
TEMPO 2018/2023 BKN009
BECMG 2022/2024 3000 BR
TEMPO 2100/2108 0200 FZFG VV001
TEMPO 2108/2112 BKN004
BECMG 2109/2112 7000
TEMPO 2112/2118 4000 -RA BKN006



MET'MAP, your aeronautical weather chart ! - Copyright ORBIFLY December 2007 - Disclaimer

ORBIFLY MET'MAP TEAM :

Programming & Development : Alexandra Zaïnal
Concept & Development : Baudouin d'Aumeries
Co-Development & Prog : Marc-Olivier Méhu
Technical & hardware support : Manuel Goepfert

Contact : metmap@orbifly.com




SOURCES & CREDITS :

   NOAA